Time;durP1;ratioP1;P1;durP2;ratioP2;P2;SDS_P1;SDS_P2;PMS_P1;PMS_P2;Temp;Humidity;BMP_temperature;BMP_pressure;BME280_temperature;BME280_humidity;BME280_pressure;Samples;Min_cycle;Max_cycle;Signal;HPM_P1;HPM_P2
2023/06/20 00:00:49;;;;;;;;;3.00;3.00;;;;;;;;5026784;28;51052;-53
2023/06/20 00:03:15;;;;;;;;;4.33;4.00;;;;;;;;5028529;28;51009;-53
2023/06/20 00:05:40;;;;;;;;;3.00;3.00;;;;;;;;5030101;28;51294;-55
2023/06/20 00:08:06;;;;;;;;;2.33;2.33;;;;;;;;5030321;28;51122;-54
2023/06/20 00:10:31;;;;;;;;;2.00;2.00;;;;;;;;5013998;28;51068;-55
2023/06/20 00:12:56;;;;;;;;;3.00;3.00;;;;;;;;5025448;28;51001;-58
2023/06/20 00:15:25;;;;;;;;;3.00;3.00;;;;;;;;5019792;28;51056;-55
2023/06/20 00:17:50;;;;;;;;;2.67;2.33;;;;;;;;5031795;28;51764;-55
2023/06/20 00:20:15;;;;;;;;;2.33;2.00;;;;;;;;5026622;28;51148;-54
2023/06/20 00:22:41;;;;;;;;;2.00;2.00;;;;;;;;5028730;28;50912;-55
2023/06/20 00:25:06;;;;;;;;;3.33;2.67;;;;;;;;5020841;28;51392;-55
2023/06/20 00:27:31;;;;;;;;;2.00;2.00;;;;;;;;5029528;28;51807;-59
2023/06/20 00:29:57;;;;;;;;;2.00;2.00;;;;;;;;5032147;28;51111;-56
2023/06/20 00:32:22;;;;;;;;;1.00;1.00;;;;;;;;5019713;28;51485;-57
2023/06/20 00:34:47;;;;;;;;;3.00;3.00;;;;;;;;5028179;28;51146;-55
2023/06/20 00:37:12;;;;;;;;;2.33;2.33;;;;;;;;5027016;28;52146;-55
2023/06/20 00:39:37;;;;;;;;;3.67;2.67;;;;;;;;5024173;28;51632;-55
2023/06/20 00:42:04;;;;;;;;;2.00;2.00;;;;;;;;5030412;28;51348;-55
2023/06/20 00:44:29;;;;;;;;;3.00;2.00;;;;;;;;5032312;28;51492;-55
2023/06/20 00:46:54;;;;;;;;;2.00;2.00;;;;;;;;5029233;28;51854;-55
2023/06/20 00:49:20;;;;;;;;;3.33;2.33;;;;;;;;5020394;28;51176;-54
2023/06/20 00:51:45;;;;;;;;;1.00;1.00;;;;;;;;5022020;28;51033;-54
2023/06/20 00:54:10;;;;;;;;;3.00;2.00;;;;;;;;5028714;28;51181;-56
2023/06/20 00:56:36;;;;;;;;;2.00;1.67;;;;;;;;5026492;28;52205;-56
2023/06/20 00:59:03;;;;;;;;;3.00;3.00;;;;;;;;5025274;28;50903;-56
2023/06/20 01:01:31;;;;;;;;;3.33;3.33;;;;;;;;5029565;28;50884;-56
2023/06/20 01:03:57;;;;;;;;;2.67;2.67;;;;;;;;5017737;28;51048;-56
2023/06/20 01:06:23;;;;;;;;;3.67;3.00;;;;;;;;5019900;28;52014;-58
2023/06/20 01:08:57;;;;;;;;;3.67;3.67;;;;;;;;5022392;28;51071;-56
2023/06/20 01:11:32;;;;;;;;;2.00;2.00;;;;;;;;5024489;28;51036;-56
2023/06/20 01:14:03;;;;;;;;;3.00;3.00;;;;;;;;5022452;28;51122;-55
2023/06/20 01:16:31;;;;;;;;;3.00;2.33;;;;;;;;5023001;28;51841;-55
2023/06/20 01:19:08;;;;;;;;;2.33;2.33;;;;;;;;5025975;28;51112;-56
2023/06/20 01:21:39;;;;;;;;;3.00;3.00;;;;;;;;5029274;28;52624;-56
2023/06/20 01:24:15;;;;;;;;;4.00;3.00;;;;;;;;5025073;28;51116;-56
2023/06/20 01:26:52;;;;;;;;;3.33;3.33;;;;;;;;5019732;28;51186;-56
2023/06/20 01:29:22;;;;;;;;;0.67;0.00;;;;;;;;5031492;28;51038;-55
2023/06/20 01:31:52;;;;;;;;;3.00;2.00;;;;;;;;5028422;28;51104;-56
2023/06/20 01:34:22;;;;;;;;;2.33;2.33;;;;;;;;5018207;28;51405;-56
2023/06/20 01:36:52;;;;;;;;;3.00;3.00;;;;;;;;5030760;28;51119;-55
2023/06/20 01:39:22;;;;;;;;;3.33;3.00;;;;;;;;5029519;28;52774;-56
2023/06/20 01:41:48;;;;;;;;;3.00;3.00;;;;;;;;5045543;28;50350;-54
2023/06/20 01:44:14;;;;;;;;;2.33;2.33;;;;;;;;5048648;28;32200;-56
2023/06/20 01:46:40;;;;;;;;;2.67;2.67;;;;;;;;5042482;28;31960;-56
2023/06/20 01:49:05;;;;;;;;;4.00;3.67;;;;;;;;5039049;28;31913;-55
2023/06/20 01:51:32;;;;;;;;;3.33;3.33;;;;;;;;5043024;28;31884;-54
2023/06/20 01:53:57;;;;;;;;;4.00;3.67;;;;;;;;5047761;28;31920;-54
2023/06/20 01:56:23;;;;;;;;;2.33;2.33;;;;;;;;5047388;28;31952;-55
2023/06/20 01:58:49;;;;;;;;;3.00;3.00;;;;;;;;5064131;28;38379;-55
2023/06/20 02:01:15;;;;;;;;;4.67;4.00;;;;;;;;5034962;28;51174;-56
2023/06/20 02:03:41;;;;;;;;;4.00;4.00;;;;;;;;5025766;28;51178;-56
2023/06/20 02:06:08;;;;;;;;;4.00;3.00;;;;;;;;5029251;28;51995;-56
2023/06/20 02:08:34;;;;;;;;;3.33;3.00;;;;;;;;5029047;28;51341;-56
2023/06/20 02:11:00;;;;;;;;;4.00;4.00;;;;;;;;5026155;28;51278;-54
2023/06/20 02:13:25;;;;;;;;;3.00;3.00;;;;;;;;5027976;28;51181;-55
2023/06/20 02:15:52;;;;;;;;;3.33;3.33;;;;;;;;5030175;28;51748;-54
2023/06/20 02:18:17;;;;;;;;;4.00;4.00;;;;;;;;5014202;28;51166;-54
2023/06/20 02:20:42;;;;;;;;;4.33;4.33;;;;;;;;5031958;28;51056;-54
2023/06/20 02:23:09;;;;;;;;;5.00;5.00;;;;;;;;5022449;28;51332;-55
2023/06/20 02:25:37;;;;;;;;;3.67;3.67;;;;;;;;5025013;28;51711;-55
2023/06/20 02:28:02;;;;;;;;;4.00;4.00;;;;;;;;5026683;28;51164;-55
2023/06/20 02:30:29;;;;;;;;;4.33;4.00;;;;;;;;5028120;28;51457;-56
2023/06/20 02:32:56;;;;;;;;;5.00;5.00;;;;;;;;5022466;28;51194;-56
2023/06/20 02:35:22;;;;;;;;;5.00;4.00;;;;;;;;5030028;28;52729;-55
2023/06/20 02:37:49;;;;;;;;;3.00;3.00;;;;;;;;5026785;28;51083;-54
2023/06/20 02:40:14;;;;;;;;;5.00;4.00;;;;;;;;5027692;28;51126;-55
2023/06/20 02:42:39;;;;;;;;;6.00;4.00;;;;;;;;5029869;28;51241;-56
2023/06/20 02:45:05;;;;;;;;;5.00;4.67;;;;;;;;5030892;28;50980;-55
2023/06/20 02:47:53;;;;;;;;;4.00;4.00;;;;;;;;5029943;28;51016;-55
2023/06/20 02:50:27;;;;;;;;;6.00;5.00;;;;;;;;5001766;28;51109;-56
2023/06/20 02:53:14;;;;;;;;;4.00;4.00;;;;;;;;5017500;28;51200;-55
2023/06/20 02:55:45;;;;;;;;;5.00;5.00;;;;;;;;5029158;28;51834;-54
2023/06/20 02:58:12;;;;;;;;;4.33;4.00;;;;;;;;5030745;28;50961;-54
2023/06/20 03:00:38;;;;;;;;;6.67;5.00;;;;;;;;5030900;28;51032;-55
2023/06/20 03:03:06;;;;;;;;;5.00;4.00;;;;;;;;5030269;28;51131;-54
2023/06/20 03:05:35;;;;;;;;;5.00;5.00;;;;;;;;5028458;28;51871;-54
2023/06/20 03:08:01;;;;;;;;;4.00;4.00;;;;;;;;5030704;28;50879;-54
2023/06/20 03:10:26;;;;;;;;;6.00;6.00;;;;;;;;5024279;28;51072;-55
2023/06/20 03:12:51;;;;;;;;;4.00;4.00;;;;;;;;5023306;28;51109;-56
2023/06/20 03:15:17;;;;;;;;;5.67;5.67;;;;;;;;5022292;28;50898;-55
2023/06/20 03:17:42;;;;;;;;;1.00;1.00;;;;;;;;5013158;28;51320;-56
2023/06/20 03:20:09;;;;;;;;;6.00;5.00;;;;;;;;5025453;28;51345;-56
2023/06/20 03:22:34;;;;;;;;;6.33;4.67;;;;;;;;5026312;28;51220;-55
2023/06/20 03:24:59;;;;;;;;;4.33;4.33;;;;;;;;5033350;28;51991;-56
2023/06/20 03:27:24;;;;;;;;;5.00;4.67;;;;;;;;5017040;28;51111;-54
2023/06/20 03:29:50;;;;;;;;;5.00;5.00;;;;;;;;5018175;28;51324;-55
2023/06/20 03:32:15;;;;;;;;;6.00;5.00;;;;;;;;5023775;28;51539;-55
2023/06/20 03:34:40;;;;;;;;;6.00;5.00;;;;;;;;5031078;28;52290;-54
2023/06/20 03:37:05;;;;;;;;;6.00;4.67;;;;;;;;5014654;28;51210;-55
2023/06/20 03:39:30;;;;;;;;;7.67;6.33;;;;;;;;5018108;28;51295;-55
2023/06/20 03:41:55;;;;;;;;;5.00;5.00;;;;;;;;5032017;28;51413;-54
2023/06/20 03:44:21;;;;;;;;;5.00;5.00;;;;;;;;5032956;28;51122;-55
2023/06/20 03:46:46;;;;;;;;;8.00;6.67;;;;;;;;5026315;28;51178;-53
2023/06/20 03:49:11;;;;;;;;;7.00;6.00;;;;;;;;5030130;28;51249;-55
2023/06/20 03:51:38;;;;;;;;;6.67;5.00;;;;;;;;5033314;28;50964;-55
2023/06/20 03:54:03;;;;;;;;;7.00;6.00;;;;;;;;5031979;28;52878;-55
2023/06/20 03:56:28;;;;;;;;;6.00;5.00;;;;;;;;5023068;28;50942;-55
2023/06/20 03:58:54;;;;;;;;;6.00;6.00;;;;;;;;5014018;28;51040;-55
2023/06/20 04:01:19;;;;;;;;;8.00;7.00;;;;;;;;5033113;28;51480;-55
2023/06/20 04:03:44;;;;;;;;;6.00;6.00;;;;;;;;5022683;28;51269;-55
2023/06/20 04:06:09;;;;;;;;;8.00;8.00;;;;;;;;5029737;28;51069;-55
2023/06/20 04:08:35;;;;;;;;;6.00;6.00;;;;;;;;5023503;28;51002;-55
2023/06/20 04:11:01;;;;;;;;;6.00;5.67;;;;;;;;5032839;28;50904;-55
2023/06/20 04:13:26;;;;;;;;;5.67;5.67;;;;;;;;5030576;28;52012;-55
2023/06/20 04:15:51;;;;;;;;;6.00;6.00;;;;;;;;5027322;28;50992;-54
2023/06/20 04:18:16;;;;;;;;;7.33;6.33;;;;;;;;5028684;28;51287;-55
2023/06/20 04:20:42;;;;;;;;;5.67;5.00;;;;;;;;5033787;28;50903;-55
2023/06/20 04:23:07;;;;;;;;;8.33;7.33;;;;;;;;5031853;28;53136;-55
2023/06/20 04:25:33;;;;;;;;;6.00;6.00;;;;;;;;5032705;28;51202;-55
2023/06/20 04:27:59;;;;;;;;;5.00;5.00;;;;;;;;5032950;28;51230;-57
2023/06/20 04:30:24;;;;;;;;;7.00;6.67;;;;;;;;5024915;28;51209;-55
2023/06/20 04:32:53;;;;;;;;;6.67;6.00;;;;;;;;5021161;28;52609;-55
2023/06/20 04:35:18;;;;;;;;;6.00;6.00;;;;;;;;5025953;28;51130;-56
2023/06/20 04:37:43;;;;;;;;;7.33;7.00;;;;;;;;5016759;28;51244;-55
2023/06/20 04:40:11;;;;;;;;;7.00;6.00;;;;;;;;5020519;28;51424;-56
2023/06/20 04:42:36;;;;;;;;;6.33;6.33;;;;;;;;5025766;28;52701;-55
2023/06/20 04:45:02;;;;;;;;;6.00;6.00;;;;;;;;5018239;28;51174;-56
2023/06/20 04:47:28;;;;;;;;;8.00;6.67;;;;;;;;5024443;28;51084;-55
2023/06/20 04:49:53;;;;;;;;;7.00;6.67;;;;;;;;5032082;28;51043;-54
2023/06/20 04:52:18;;;;;;;;;8.00;7.00;;;;;;;;5018752;28;51850;-55
2023/06/20 04:54:43;;;;;;;;;7.00;5.33;;;;;;;;5030022;28;51028;-55
2023/06/20 04:57:08;;;;;;;;;6.33;6.33;;;;;;;;5030116;28;51319;-56
2023/06/20 04:59:35;;;;;;;;;7.00;6.00;;;;;;;;5031055;28;51452;-55
2023/06/20 05:02:04;;;;;;;;;9.00;7.00;;;;;;;;5027455;28;51949;-55
2023/06/20 05:04:29;;;;;;;;;4.00;3.67;;;;;;;;5017911;28;51333;-55
2023/06/20 05:06:54;;;;;;;;;5.67;4.67;;;;;;;;5020305;28;51559;-55
2023/06/20 05:09:19;;;;;;;;;5.00;5.00;;;;;;;;5016481;28;51091;-56
2023/06/20 05:11:45;;;;;;;;;8.67;7.67;;;;;;;;5029399;28;51103;-55
2023/06/20 05:14:10;;;;;;;;;6.33;5.33;;;;;;;;5026007;28;51112;-55
2023/06/20 05:16:35;;;;;;;;;7.67;6.00;;;;;;;;5026541;28;51146;-54
2023/06/20 05:19:00;;;;;;;;;6.67;6.67;;;;;;;;5019452;28;51261;-55
2023/06/20 05:21:25;;;;;;;;;5.67;4.33;;;;;;;;5018297;28;51698;-54
2023/06/20 05:23:51;;;;;;;;;8.33;8.00;;;;;;;;5021033;28;51043;-55
2023/06/20 05:26:16;;;;;;;;;6.00;6.00;;;;;;;;5025501;28;51279;-56
2023/06/20 05:28:41;;;;;;;;;7.33;7.33;;;;;;;;5022428;28;50924;-56
2023/06/20 05:31:08;;;;;;;;;7.00;7.00;;;;;;;;5011884;28;52016;-56
2023/06/20 05:33:34;;;;;;;;;5.67;5.00;;;;;;;;5020915;28;51166;-54
2023/06/20 05:35:59;;;;;;;;;8.33;7.67;;;;;;;;5021236;28;51171;-54
2023/06/20 05:38:24;;;;;;;;;9.67;8.00;;;;;;;;5028164;28;51371;-56
2023/06/20 05:40:49;;;;;;;;;8.33;7.00;;;;;;;;5015899;28;51071;-55
2023/06/20 05:43:14;;;;;;;;;5.33;5.33;;;;;;;;5015148;28;51329;-56
2023/06/20 05:45:40;;;;;;;;;8.67;7.67;;;;;;;;5030414;28;51047;-56
2023/06/20 05:48:08;;;;;;;;;9.00;8.00;;;;;;;;5024221;28;52077;-55
2023/06/20 05:50:33;;;;;;;;;10.33;9.00;;;;;;;;5025645;28;51112;-55
2023/06/20 05:53:00;;;;;;;;;9.67;9.00;;;;;;;;5016590;28;51048;-54
2023/06/20 05:55:25;;;;;;;;;9.00;8.00;;;;;;;;5028082;28;50918;-53
2023/06/20 05:57:50;;;;;;;;;9.67;8.00;;;;;;;;5011859;28;51217;-56
2023/06/20 06:00:16;;;;;;;;;9.33;9.33;;;;;;;;5021201;28;54013;-54
2023/06/20 06:02:45;;;;;;;;;10.00;10.00;;;;;;;;5023954;28;51213;-55
2023/06/20 06:05:10;;;;;;;;;9.00;7.67;;;;;;;;5029297;28;51270;-55
2023/06/20 06:07:37;;;;;;;;;8.00;6.67;;;;;;;;5020679;28;50929;-55
2023/06/20 06:10:02;;;;;;;;;10.67;9.67;;;;;;;;5016313;28;52033;-55
2023/06/20 06:12:27;;;;;;;;;8.33;8.00;;;;;;;;5028954;28;51037;-56
2023/06/20 06:14:53;;;;;;;;;8.00;7.00;;;;;;;;5026500;28;51000;-55
2023/06/20 06:17:18;;;;;;;;;10.33;9.00;;;;;;;;5012643;28;51253;-56
2023/06/20 06:19:43;;;;;;;;;8.67;8.67;;;;;;;;5011410;28;52016;-56
2023/06/20 06:22:08;;;;;;;;;7.00;7.00;;;;;;;;5023852;28;51006;-55
2023/06/20 06:24:33;;;;;;;;;11.33;9.00;;;;;;;;5029757;28;51084;-55
2023/06/20 06:26:59;;;;;;;;;8.33;7.00;;;;;;;;5030876;28;51163;-56
2023/06/20 06:29:25;;;;;;;;;9.00;9.00;;;;;;;;5034464;28;51841;-58
2023/06/20 06:31:51;;;;;;;;;10.00;9.00;;;;;;;;5030694;28;51311;-57
2023/06/20 06:34:16;;;;;;;;;8.67;8.00;;;;;;;;5032611;28;51096;-58
2023/06/20 06:36:42;;;;;;;;;8.00;8.00;;;;;;;;5025449;28;51339;-56
2023/06/20 06:39:11;;;;;;;;;9.33;9.33;;;;;;;;5020605;28;51961;-56
2023/06/20 06:41:36;;;;;;;;;10.00;10.00;;;;;;;;5027392;28;51179;-56
2023/06/20 06:44:01;;;;;;;;;9.67;9.00;;;;;;;;5021370;28;51362;-57
2023/06/20 06:46:27;;;;;;;;;9.00;9.00;;;;;;;;5021927;28;50945;-57
2023/06/20 06:48:52;;;;;;;;;10.67;10.00;;;;;;;;5030353;28;52136;-57
2023/06/20 06:51:17;;;;;;;;;11.67;10.00;;;;;;;;5019618;28;51011;-57
2023/06/20 06:53:42;;;;;;;;;12.33;11.00;;;;;;;;5021333;28;51214;-57
2023/06/20 06:56:07;;;;;;;;;11.33;10.00;;;;;;;;5032271;28;51142;-58
2023/06/20 06:58:33;;;;;;;;;15.00;14.00;;;;;;;;5028010;28;51958;-59
2023/06/20 07:00:58;;;;;;;;;12.00;11.00;;;;;;;;5034658;28;50966;-59
2023/06/20 07:03:24;;;;;;;;;11.00;10.00;;;;;;;;5029670;28;51398;-56
2023/06/20 07:05:49;;;;;;;;;11.67;11.00;;;;;;;;5028902;28;51208;-59
2023/06/20 07:08:14;;;;;;;;;14.33;11.00;;;;;;;;5032414;28;51663;-57
2023/06/20 07:10:39;;;;;;;;;10.67;10.67;;;;;;;;5034362;28;50980;-57
2023/06/20 07:13:06;;;;;;;;;13.67;13.67;;;;;;;;5028060;28;51868;-57
2023/06/20 07:15:32;;;;;;;;;11.33;11.00;;;;;;;;5034272;28;51297;-57
2023/06/20 07:17:57;;;;;;;;;12.00;12.00;;;;;;;;5030736;28;52755;-57
2023/06/20 07:20:22;;;;;;;;;13.33;13.33;;;;;;;;5020015;28;51017;-57
2023/06/20 07:22:47;;;;;;;;;11.00;11.00;;;;;;;;5026751;28;51259;-57
2023/06/20 07:25:12;;;;;;;;;13.00;13.00;;;;;;;;5028597;28;50927;-58
2023/06/20 07:27:37;;;;;;;;;12.00;11.33;;;;;;;;5027885;28;51088;-58
2023/06/20 07:30:03;;;;;;;;;13.33;12.33;;;;;;;;5027929;28;51068;-57
2023/06/20 07:32:28;;;;;;;;;12.33;12.00;;;;;;;;5025322;28;50977;-57
2023/06/20 07:34:53;;;;;;;;;14.00;12.67;;;;;;;;5022738;28;51406;-58
2023/06/20 07:37:19;;;;;;;;;12.33;12.33;;;;;;;;5026800;28;51961;-57
2023/06/20 07:39:46;;;;;;;;;12.00;12.00;;;;;;;;5033076;28;51092;-57
2023/06/20 07:42:11;;;;;;;;;12.00;12.00;;;;;;;;5027683;28;51276;-55
2023/06/20 07:44:37;;;;;;;;;15.67;15.00;;;;;;;;5020293;28;51020;-56
2023/06/20 07:47:02;;;;;;;;;13.33;11.67;;;;;;;;5033994;28;52307;-61
2023/06/20 07:49:30;;;;;;;;;13.67;12.67;;;;;;;;5020519;28;51150;-56
2023/06/20 07:51:55;;;;;;;;;17.33;16.33;;;;;;;;5026910;28;51701;-56
2023/06/20 07:54:21;;;;;;;;;13.67;13.00;;;;;;;;5024888;28;51046;-56
2023/06/20 07:56:46;;;;;;;;;11.67;11.33;;;;;;;;5020580;28;51892;-56
2023/06/20 07:59:11;;;;;;;;;15.67;15.67;;;;;;;;5016442;28;51134;-56
2023/06/20 08:01:36;;;;;;;;;17.67;16.67;;;;;;;;5022852;28;51088;-57
2023/06/20 08:04:02;;;;;;;;;15.67;13.33;;;;;;;;5018922;28;50874;-56
2023/06/20 08:06:27;;;;;;;;;12.67;12.67;;;;;;;;5020790;28;51756;-55
2023/06/20 08:08:52;;;;;;;;;17.67;16.33;;;;;;;;5024290;28;51217;-56
2023/06/20 08:11:21;;;;;;;;;16.67;14.33;;;;;;;;5028618;28;51132;-57
2023/06/20 08:13:46;;;;;;;;;16.33;16.00;;;;;;;;5029027;28;51149;-58
2023/06/20 08:16:11;;;;;;;;;13.00;13.00;;;;;;;;5022898;28;51178;-58
2023/06/20 08:18:36;;;;;;;;;14.33;12.33;;;;;;;;5021898;28;51073;-56
2023/06/20 08:21:02;;;;;;;;;13.67;13.33;;;;;;;;5012958;28;51140;-58
2023/06/20 08:23:27;;;;;;;;;16.00;15.67;;;;;;;;5029896;28;51366;-57
2023/06/20 08:25:53;;;;;;;;;12.33;12.00;;;;;;;;5038109;28;51733;-57
2023/06/20 08:28:19;;;;;;;;;15.33;15.33;;;;;;;;5041200;28;52732;-57
2023/06/20 08:30:44;;;;;;;;;15.00;15.00;;;;;;;;5034929;28;50972;-56
2023/06/20 08:33:09;;;;;;;;;16.00;16.00;;;;;;;;5030276;28;50936;-60
2023/06/20 08:35:35;;;;;;;;;14.67;13.67;;;;;;;;5042721;28;51738;-58
2023/06/20 08:38:00;;;;;;;;;12.00;12.00;;;;;;;;5044984;28;51008;-57
2023/06/20 08:40:25;;;;;;;;;17.00;15.33;;;;;;;;5023092;28;51167;-57
2023/06/20 08:42:51;;;;;;;;;17.00;16.33;;;;;;;;5034126;28;51380;-59
2023/06/20 08:45:16;;;;;;;;;16.33;15.67;;;;;;;;5038846;28;51725;-57
2023/06/20 08:47:41;;;;;;;;;15.33;15.00;;;;;;;;5032356;28;51076;-57
2023/06/20 08:50:07;;;;;;;;;20.33;18.33;;;;;;;;5021902;28;51210;-57
2023/06/20 08:52:37;;;;;;;;;17.33;17.00;;;;;;;;5020325;28;50859;-57
2023/06/20 08:55:02;;;;;;;;;17.33;17.33;;;;;;;;5028336;28;51166;-57
2023/06/20 08:57:28;;;;;;;;;15.33;15.00;;;;;;;;5016605;28;51036;-56
2023/06/20 08:59:54;;;;;;;;;15.00;14.67;;;;;;;;5031303;28;51203;-58
2023/06/20 09:02:21;;;;;;;;;14.00;13.00;;;;;;;;5031641;28;51324;-58
2023/06/20 09:04:59;;;;;;;;;16.33;16.33;;;;;;;;5024630;28;53145;-58
2023/06/20 09:07:25;;;;;;;;;17.00;16.00;;;;;;;;5034248;28;51077;-57
2023/06/20 09:09:50;;;;;;;;;15.33;15.00;;;;;;;;5031827;28;51189;-57
2023/06/20 09:12:17;;;;;;;;;13.33;13.00;;;;;;;;5028758;28;50981;-58
2023/06/20 09:14:45;;;;;;;;;16.67;15.67;;;;;;;;5040261;28;51143;-58
2023/06/20 09:17:10;;;;;;;;;16.67;16.00;;;;;;;;5018082;28;51184;-57
2023/06/20 09:19:40;;;;;;;;;16.33;15.67;;;;;;;;5032998;28;51373;-56
2023/06/20 09:22:06;;;;;;;;;17.67;16.00;;;;;;;;5027555;28;51083;-57
2023/06/20 09:24:40;;;;;;;;;17.00;16.33;;;;;;;;5035601;28;51269;-57
2023/06/20 09:27:05;;;;;;;;;17.33;16.67;;;;;;;;5025541;28;51215;-57
2023/06/20 09:29:30;;;;;;;;;15.00;15.00;;;;;;;;5031458;28;51120;-57
2023/06/20 09:31:55;;;;;;;;;17.67;17.33;;;;;;;;5026585;28;50993;-59
2023/06/20 09:34:21;;;;;;;;;15.33;15.00;;;;;;;;5038123;28;51083;-56
2023/06/20 09:36:46;;;;;;;;;26.00;26.00;;;;;;;;5030663;28;51141;-56
2023/06/20 09:39:13;;;;;;;;;11.33;11.33;;;;;;;;5029495;28;50889;-56
2023/06/20 09:41:49;;;;;;;;;16.00;15.67;;;;;;;;5026272;28;51118;-56
2023/06/20 09:44:15;;;;;;;;;18.33;18.33;;;;;;;;5035297;28;51730;-56
2023/06/20 09:46:40;;;;;;;;;18.33;17.33;;;;;;;;5026636;28;51107;-57
2023/06/20 09:49:06;;;;;;;;;18.33;18.00;;;;;;;;5027734;28;51080;-57
2023/06/20 09:51:37;;;;;;;;;17.67;16.67;;;;;;;;5021777;28;51241;-57
2023/06/20 09:54:06;;;;;;;;;17.00;16.00;;;;;;;;5028071;28;52360;-58
2023/06/20 09:56:43;;;;;;;;;15.00;15.00;;;;;;;;5027202;28;50861;-57
2023/06/20 09:59:09;;;;;;;;;17.00;16.33;;;;;;;;5026446;28;51205;-57
2023/06/20 10:01:34;;;;;;;;;15.67;15.67;;;;;;;;5039245;28;51050;-58
2023/06/20 10:04:00;;;;;;;;;11.33;11.00;;;;;;;;5034671;28;52203;-58
2023/06/20 10:06:25;;;;;;;;;20.67;17.33;;;;;;;;5030455;28;50970;-57
2023/06/20 10:08:52;;;;;;;;;15.00;14.00;;;;;;;;5024872;28;51082;-57
2023/06/20 10:11:17;;;;;;;;;13.67;13.00;;;;;;;;5030017;28;51325;-58
2023/06/20 10:13:42;;;;;;;;;13.33;13.00;;;;;;;;5034670;28;51849;-58
2023/06/20 10:16:08;;;;;;;;;15.00;13.67;;;;;;;;5024076;28;51300;-58
2023/06/20 10:18:33;;;;;;;;;12.67;12.67;;;;;;;;5016298;28;52516;-57
2023/06/20 10:21:02;;;;;;;;;14.00;14.00;;;;;;;;5025454;28;51189;-58
2023/06/20 10:23:31;;;;;;;;;13.33;13.00;;;;;;;;5033610;28;53429;-57
2023/06/20 10:26:01;;;;;;;;;10.00;10.00;;;;;;;;5030335;28;51111;-57
2023/06/20 10:28:26;;;;;;;;;10.00;10.00;;;;;;;;5034062;28;51094;-58
2023/06/20 10:31:00;;;;;;;;;15.33;15.33;;;;;;;;5028759;28;51018;-57
2023/06/20 10:33:27;;;;;;;;;11.33;10.33;;;;;;;;5031484;28;52252;-55
2023/06/20 10:35:54;;;;;;;;;13.00;12.33;;;;;;;;5029076;28;50981;-58
2023/06/20 10:38:19;;;;;;;;;14.00;13.00;;;;;;;;5032123;28;51206;-57
2023/06/20 10:40:44;;;;;;;;;11.33;11.33;;;;;;;;5030486;28;51143;-57
2023/06/20 10:43:21;;;;;;;;;9.00;9.00;;;;;;;;5028403;28;51857;-57
2023/06/20 10:45:57;;;;;;;;;9.67;8.67;;;;;;;;5029732;28;51107;-56
2023/06/20 10:48:22;;;;;;;;;11.67;11.67;;;;;;;;5014553;28;51196;-56
2023/06/20 10:50:47;;;;;;;;;8.50;8.00;;;;;;;;5021654;28;51206;-56
2023/06/20 10:53:13;;;;;;;;;11.33;10.33;;;;;;;;5027114;28;52733;-56
2023/06/20 10:55:38;;;;;;;;;9.67;9.67;;;;;;;;5029356;28;51148;-57
2023/06/20 10:58:04;;;;;;;;;12.67;12.33;;;;;;;;5031715;28;51269;-58
2023/06/20 11:00:29;;;;;;;;;9.00;9.00;;;;;;;;5028061;28;51680;-57
2023/06/20 11:02:55;;;;;;;;;8.33;8.33;;;;;;;;5042707;28;51942;-57
2023/06/20 11:05:26;;;;;;;;;8.00;8.00;;;;;;;;5036219;28;50886;-56
2023/06/20 11:07:55;;;;;;;;;7.67;7.67;;;;;;;;5024685;28;51183;-58
2023/06/20 11:10:30;;;;;;;;;10.33;10.33;;;;;;;;5022667;28;51046;-58
2023/06/20 11:12:56;;;;;;;;;9.33;9.33;;;;;;;;5037933;28;52110;-57
2023/06/20 11:15:25;;;;;;;;;7.67;7.67;;;;;;;;5028939;28;51067;-57
2023/06/20 11:17:50;;;;;;;;;8.33;8.00;;;;;;;;5015652;28;51033;-58
2023/06/20 11:20:19;;;;;;;;;11.00;10.33;;;;;;;;5037290;28;51049;-57
2023/06/20 11:22:46;;;;;;;;;9.00;9.00;;;;;;;;5034124;28;51237;-57
2023/06/20 11:25:11;;;;;;;;;11.33;11.00;;;;;;;;5020411;28;51056;-57
2023/06/20 11:27:36;;;;;;;;;12.00;11.00;;;;;;;;5028996;28;51124;-58
2023/06/20 11:30:02;;;;;;;;;8.67;8.67;;;;;;;;5033277;28;50890;-57
2023/06/20 11:32:27;;;;;;;;;15.00;15.00;;;;;;;;5029734;28;51812;-58
2023/06/20 11:35:02;;;;;;;;;14.67;14.33;;;;;;;;5023692;28;50936;-57
2023/06/20 11:37:28;;;;;;;;;11.67;8.67;;;;;;;;5013868;28;50942;-58
2023/06/20 11:39:53;;;;;;;;;10.00;10.00;;;;;;;;5027777;28;51347;-58
2023/06/20 11:42:18;;;;;;;;;9.33;9.33;;;;;;;;5020653;28;51005;-58
2023/06/20 11:44:44;;;;;;;;;8.67;8.67;;;;;;;;5028374;28;51144;-55
2023/06/20 11:47:09;;;;;;;;;8.00;8.00;;;;;;;;5031722;28;51163;-57
2023/06/20 11:49:38;;;;;;;;;6.00;6.00;;;;;;;;5020910;28;51217;-62
2023/06/20 11:52:05;;;;;;;;;10.00;9.67;;;;;;;;5014426;28;52251;-57
2023/06/20 11:54:45;;;;;;;;;11.00;9.67;;;;;;;;5033418;28;50916;-58
2023/06/20 11:57:11;;;;;;;;;9.33;8.00;;;;;;;;5031673;28;51017;-57
2023/06/20 11:59:36;;;;;;;;;9.00;9.00;;;;;;;;5029590;28;51072;-57
2023/06/20 12:02:02;;;;;;;;;9.67;8.67;;;;;;;;5013451;28;51045;-58
2023/06/20 12:04:27;;;;;;;;;8.00;8.00;;;;;;;;5031186;28;51235;-57
2023/06/20 12:07:02;;;;;;;;;11.00;10.33;;;;;;;;5027555;28;50978;-56
2023/06/20 12:09:37;;;;;;;;;9.00;8.67;;;;;;;;5027951;28;51130;-56
2023/06/20 12:12:02;;;;;;;;;10.00;10.00;;;;;;;;5025736;28;52298;-61
2023/06/20 12:14:27;;;;;;;;;12.00;11.33;;;;;;;;5011953;28;51171;-56
2023/06/20 12:16:53;;;;;;;;;12.00;10.00;;;;;;;;5016124;28;51326;-57
2023/06/20 12:19:21;;;;;;;;;10.67;10.67;;;;;;;;5033377;28;51274;-57
2023/06/20 12:21:47;;;;;;;;;11.33;11.33;;;;;;;;5032302;28;51546;-57
2023/06/20 12:24:12;;;;;;;;;12.00;12.00;;;;;;;;5016448;28;51025;-57
2023/06/20 12:26:38;;;;;;;;;10.33;10.33;;;;;;;;5022881;28;51128;-56
2023/06/20 12:29:04;;;;;;;;;14.00;13.33;;;;;;;;5017897;28;51246;-56
2023/06/20 12:31:30;;;;;;;;;14.00;13.67;;;;;;;;5018826;28;51223;-57
2023/06/20 12:33:55;;;;;;;;;10.33;9.33;;;;;;;;5017582;28;51109;-58
2023/06/20 12:36:21;;;;;;;;;9.00;9.00;;;;;;;;5031575;28;51133;-57
2023/06/20 12:38:47;;;;;;;;;12.00;11.33;;;;;;;;5025678;28;51187;-58
2023/06/20 12:41:12;;;;;;;;;13.00;12.00;;;;;;;;5017138;28;51797;-57
2023/06/20 12:43:38;;;;;;;;;12.67;12.67;;;;;;;;5019243;28;50994;-57
2023/06/20 12:46:03;;;;;;;;;10.67;10.00;;;;;;;;5033021;28;51056;-57
2023/06/20 12:48:29;;;;;;;;;9.00;9.00;;;;;;;;5023367;28;50890;-57
2023/06/20 12:50:54;;;;;;;;;9.00;8.67;;;;;;;;5029591;28;51143;-57
2023/06/20 12:53:19;;;;;;;;;10.00;9.00;;;;;;;;5032598;28;51152;-57
2023/06/20 12:55:44;;;;;;;;;11.00;10.00;;;;;;;;5031854;28;51202;-58
2023/06/20 12:58:11;;;;;;;;;11.67;11.33;;;;;;;;5016955;28;51119;-57
2023/06/20 13:00:37;;;;;;;;;11.67;11.67;;;;;;;;5019298;28;52669;-57
2023/06/20 13:03:03;;;;;;;;;9.00;9.00;;;;;;;;5012364;28;51198;-58
2023/06/20 13:05:28;;;;;;;;;10.00;10.00;;;;;;;;5025436;28;50797;-57
2023/06/20 13:07:54;;;;;;;;;7.33;7.33;;;;;;;;5018178;28;51082;-58
2023/06/20 13:10:20;;;;;;;;;14.00;13.00;;;;;;;;5023485;28;51743;-56
2023/06/20 13:12:46;;;;;;;;;7.33;6.33;;;;;;;;5027793;28;50945;-57
2023/06/20 13:15:12;;;;;;;;;12.33;12.00;;;;;;;;5014376;28;51141;-57
2023/06/20 13:17:38;;;;;;;;;9.00;8.67;;;;;;;;5028165;28;51211;-57
2023/06/20 13:20:06;;;;;;;;;9.67;9.00;;;;;;;;5018617;28;51799;-57
2023/06/20 13:22:31;;;;;;;;;9.67;9.67;;;;;;;;5026385;28;50987;-57
2023/06/20 13:24:56;;;;;;;;;11.00;10.67;;;;;;;;5032137;28;51263;-56
2023/06/20 13:27:25;;;;;;;;;13.00;13.00;;;;;;;;5031669;28;51369;-56
2023/06/20 13:29:50;;;;;;;;;8.67;8.33;;;;;;;;5021462;28;53470;-58
2023/06/20 13:32:15;;;;;;;;;12.67;12.33;;;;;;;;5025352;28;50939;-58
2023/06/20 13:34:41;;;;;;;;;11.67;10.67;;;;;;;;5024908;28;51094;-56
2023/06/20 13:37:06;;;;;;;;;10.67;10.00;;;;;;;;5014155;28;51125;-56
2023/06/20 13:39:32;;;;;;;;;12.00;10.67;;;;;;;;5027650;28;51976;-57
2023/06/20 13:41:57;;;;;;;;;11.67;11.67;;;;;;;;5029863;28;51607;-56
2023/06/20 13:44:23;;;;;;;;;10.67;10.00;;;;;;;;5013530;28;50992;-57
2023/06/20 13:46:48;;;;;;;;;9.33;9.00;;;;;;;;5015866;28;50998;-58
2023/06/20 13:49:13;;;;;;;;;8.67;8.67;;;;;;;;5015154;28;51129;-57
2023/06/20 13:51:43;;;;;;;;;9.33;9.33;;;;;;;;5019379;28;51260;-57
2023/06/20 13:54:08;;;;;;;;;10.67;9.00;;;;;;;;5016015;28;50992;-56
2023/06/20 13:56:33;;;;;;;;;8.33;8.00;;;;;;;;5031968;28;50872;-57
2023/06/20 13:58:59;;;;;;;;;10.33;10.33;;;;;;;;5022963;28;51702;-56
2023/06/20 14:01:24;;;;;;;;;10.00;8.33;;;;;;;;5030176;28;50850;-57
2023/06/20 14:03:50;;;;;;;;;7.00;7.00;;;;;;;;5025754;28;53646;-56
2023/06/20 14:06:15;;;;;;;;;7.00;6.67;;;;;;;;5028797;28;51157;-57
2023/06/20 14:08:41;;;;;;;;;10.00;9.00;;;;;;;;5029625;28;52752;-57
2023/06/20 14:11:06;;;;;;;;;9.00;8.33;;;;;;;;5030834;28;51119;-57
2023/06/20 14:13:31;;;;;;;;;11.67;11.67;;;;;;;;5021595;28;51036;-57
2023/06/20 14:15:56;;;;;;;;;10.33;10.00;;;;;;;;5017741;28;51169;-58
2023/06/20 14:18:23;;;;;;;;;8.33;8.33;;;;;;;;5013812;28;51950;-57
2023/06/20 14:20:49;;;;;;;;;9.00;9.00;;;;;;;;5019617;28;51194;-57
2023/06/20 14:23:14;;;;;;;;;8.00;8.00;;;;;;;;5012350;28;51083;-57
2023/06/20 14:25:39;;;;;;;;;9.33;9.00;;;;;;;;5030458;28;51249;-57
2023/06/20 14:28:04;;;;;;;;;10.00;10.00;;;;;;;;5022070;28;51115;-57